sensor_id;sensor_type;location;lat;lon;timestamp;P1;durP1;ratioP1;P2;durP2;ratioP2
25449;SDS011;13371;52.080;5.624;2023-03-01T00:02:00;7.57;;;1.95;;
25449;SDS011;13371;52.080;5.624;2023-03-01T00:04:26;1.50;;;0.98;;
25449;SDS011;13371;52.080;5.624;2023-03-01T00:06:52;1.08;;;0.85;;
25449;SDS011;13371;52.080;5.624;2023-03-01T00:09:18;1.77;;;1.20;;
25449;SDS011;13371;52.080;5.624;2023-03-01T00:11:44;1.17;;;0.93;;
25449;SDS011;13371;52.080;5.624;2023-03-01T00:14:10;2.50;;;1.27;;
25449;SDS011;13371;52.080;5.624;2023-03-01T00:16:36;3.85;;;1.92;;
25449;SDS011;13371;52.080;5.624;2023-03-01T00:19:04;2.25;;;1.42;;
25449;SDS011;13371;52.080;5.624;2023-03-01T00:21:31;2.08;;;0.80;;
25449;SDS011;13371;52.080;5.624;2023-03-01T00:23:56;3.25;;;1.88;;
25449;SDS011;13371;52.080;5.624;2023-03-01T00:26:23;4.47;;;2.22;;
25449;SDS011;13371;52.080;5.624;2023-03-01T00:28:50;2.47;;;1.58;;
25449;SDS011;13371;52.080;5.624;2023-03-01T00:31:17;2.30;;;1.10;;
25449;SDS011;13371;52.080;5.624;2023-03-01T00:33:45;1.83;;;1.08;;
25449;SDS011;13371;52.080;5.624;2023-03-01T00:36:12;3.38;;;1.35;;
25449;SDS011;13371;52.080;5.624;2023-03-01T00:38:39;3.85;;;1.30;;
25449;SDS011;13371;52.080;5.624;2023-03-01T00:41:10;1.65;;;1.05;;
25449;SDS011;13371;52.080;5.624;2023-03-01T00:43:38;4.13;;;1.80;;
25449;SDS011;13371;52.080;5.624;2023-03-01T00:46:04;3.05;;;1.75;;
25449;SDS011;13371;52.080;5.624;2023-03-01T00:48:32;1.48;;;1.05;;
25449;SDS011;13371;52.080;5.624;2023-03-01T00:51:32;1.75;;;1.20;;
25449;SDS011;13371;52.080;5.624;2023-03-01T00:53:52;4.03;;;1.92;;
25449;SDS011;13371;52.080;5.624;2023-03-01T00:56:20;3.08;;;1.13;;
25449;SDS011;13371;52.080;5.624;2023-03-01T00:58:46;3.75;;;1.73;;
25449;SDS011;13371;52.080;5.624;2023-03-01T01:01:16;8.77;;;1.42;;
25449;SDS011;13371;52.080;5.624;2023-03-01T01:03:45;2.95;;;1.65;;
25449;SDS011;13371;52.080;5.624;2023-03-01T01:06:14;3.10;;;1.58;;
25449;SDS011;13371;52.080;5.624;2023-03-01T01:08:45;2.05;;;1.40;;
25449;SDS011;13371;52.080;5.624;2023-03-01T01:11:11;1.58;;;1.33;;
25449;SDS011;13371;52.080;5.624;2023-03-01T01:13:38;1.30;;;1.15;;
25449;SDS011;13371;52.080;5.624;2023-03-01T01:16:04;3.60;;;1.73;;
25449;SDS011;13371;52.080;5.624;2023-03-01T01:18:30;3.28;;;1.70;;
25449;SDS011;13371;52.080;5.624;2023-03-01T01:20:56;2.92;;;1.85;;
25449;SDS011;13371;52.080;5.624;2023-03-01T01:23:21;2.35;;;1.17;;
25449;SDS011;13371;52.080;5.624;2023-03-01T01:25:47;2.40;;;1.13;;
25449;SDS011;13371;52.080;5.624;2023-03-01T01:28:12;2.17;;;1.33;;
25449;SDS011;13371;52.080;5.624;2023-03-01T01:30:38;2.90;;;2.15;;
25449;SDS011;13371;52.080;5.624;2023-03-01T01:33:03;1.42;;;1.10;;
25449;SDS011;13371;52.080;5.624;2023-03-01T01:35:29;1.83;;;1.10;;
25449;SDS011;13371;52.080;5.624;2023-03-01T01:37:55;2.47;;;1.45;;
25449;SDS011;13371;52.080;5.624;2023-03-01T01:40:20;3.75;;;1.65;;
25449;SDS011;13371;52.080;5.624;2023-03-01T01:42:46;1.48;;;1.33;;
25449;SDS011;13371;52.080;5.624;2023-03-01T01:45:26;2.33;;;2.03;;
25449;SDS011;13371;52.080;5.624;2023-03-01T01:47:55;4.82;;;1.95;;
25449;SDS011;13371;52.080;5.624;2023-03-01T01:50:25;2.85;;;1.70;;
25449;SDS011;13371;52.080;5.624;2023-03-01T01:52:52;3.53;;;1.25;;
25449;SDS011;13371;52.080;5.624;2023-03-01T01:55:20;1.55;;;1.10;;
25449;SDS011;13371;52.080;5.624;2023-03-01T01:57:53;5.70;;;1.50;;
25449;SDS011;13371;52.080;5.624;2023-03-01T02:00:23;1.95;;;1.00;;
25449;SDS011;13371;52.080;5.624;2023-03-01T02:02:57;2.55;;;1.70;;
25449;SDS011;13371;52.080;5.624;2023-03-01T02:05:38;2.00;;;1.45;;
25449;SDS011;13371;52.080;5.624;2023-03-01T02:08:24;3.78;;;1.00;;
25449;SDS011;13371;52.080;5.624;2023-03-01T02:10:55;2.28;;;1.42;;
25449;SDS011;13371;52.080;5.624;2023-03-01T02:13:22;2.03;;;1.48;;
25449;SDS011;13371;52.080;5.624;2023-03-01T02:15:47;1.38;;;0.95;;
25449;SDS011;13371;52.080;5.624;2023-03-01T02:18:15;2.97;;;1.17;;
25449;SDS011;13371;52.080;5.624;2023-03-01T02:20:56;2.42;;;1.60;;
25449;SDS011;13371;52.080;5.624;2023-03-01T02:23:36;2.53;;;1.77;;
25449;SDS011;13371;52.080;5.624;2023-03-01T02:26:04;4.53;;;1.95;;
25449;SDS011;13371;52.080;5.624;2023-03-01T02:28:40;2.75;;;1.67;;
25449;SDS011;13371;52.080;5.624;2023-03-01T02:31:08;2.55;;;1.63;;
25449;SDS011;13371;52.080;5.624;2023-03-01T02:33:54;1.95;;;1.52;;
25449;SDS011;13371;52.080;5.624;2023-03-01T02:36:25;2.53;;;1.40;;
25449;SDS011;13371;52.080;5.624;2023-03-01T02:38:56;3.78;;;1.38;;
25449;SDS011;13371;52.080;5.624;2023-03-01T02:41:23;3.50;;;1.67;;
25449;SDS011;13371;52.080;5.624;2023-03-01T02:43:51;2.50;;;1.13;;
25449;SDS011;13371;52.080;5.624;2023-03-01T02:46:18;1.30;;;0.75;;
25449;SDS011;13371;52.080;5.624;2023-03-01T02:48:55;2.40;;;1.40;;
25449;SDS011;13371;52.080;5.624;2023-03-01T02:51:29;1.70;;;1.60;;
25449;SDS011;13371;52.080;5.624;2023-03-01T02:54:24;2.20;;;1.13;;
25449;SDS011;13371;52.080;5.624;2023-03-01T02:56:53;15.25;;;1.38;;
25449;SDS011;13371;52.080;5.624;2023-03-01T02:59:21;1.67;;;0.98;;
25449;SDS011;13371;52.080;5.624;2023-03-01T03:01:49;1.95;;;1.50;;
25449;SDS011;13371;52.080;5.624;2023-03-01T03:04:16;2.22;;;1.20;;
25449;SDS011;13371;52.080;5.624;2023-03-01T03:06:47;1.85;;;1.27;;
25449;SDS011;13371;52.080;5.624;2023-03-01T03:09:14;2.55;;;1.33;;
25449;SDS011;13371;52.080;5.624;2023-03-01T03:11:40;2.42;;;1.60;;
25449;SDS011;13371;52.080;5.624;2023-03-01T03:14:08;2.33;;;1.27;;
25449;SDS011;13371;52.080;5.624;2023-03-01T03:16:55;2.53;;;1.65;;
25449;SDS011;13371;52.080;5.624;2023-03-01T03:19:21;3.05;;;1.35;;
25449;SDS011;13371;52.080;5.624;2023-03-01T03:21:46;3.05;;;1.05;;
25449;SDS011;13371;52.080;5.624;2023-03-01T03:24:12;3.25;;;1.17;;
25449;SDS011;13371;52.080;5.624;2023-03-01T03:26:38;1.35;;;1.05;;
25449;SDS011;13371;52.080;5.624;2023-03-01T03:29:03;2.25;;;1.35;;
25449;SDS011;13371;52.080;5.624;2023-03-01T03:31:29;0.77;;;0.65;;
25449;SDS011;13371;52.080;5.624;2023-03-01T03:33:54;1.13;;;0.80;;
25449;SDS011;13371;52.080;5.624;2023-03-01T03:36:22;2.13;;;1.17;;
25449;SDS011;13371;52.080;5.624;2023-03-01T03:38:48;0.80;;;0.80;;
25449;SDS011;13371;52.080;5.624;2023-03-01T03:41:14;4.32;;;1.65;;
25449;SDS011;13371;52.080;5.624;2023-03-01T03:43:41;1.58;;;1.30;;
25449;SDS011;13371;52.080;5.624;2023-03-01T03:46:08;2.22;;;1.15;;
25449;SDS011;13371;52.080;5.624;2023-03-01T03:48:37;4.10;;;1.33;;
25449;SDS011;13371;52.080;5.624;2023-03-01T03:51:04;1.40;;;1.17;;
25449;SDS011;13371;52.080;5.624;2023-03-01T03:53:31;1.85;;;1.35;;
25449;SDS011;13371;52.080;5.624;2023-03-01T03:55:57;2.63;;;1.42;;
25449;SDS011;13371;52.080;5.624;2023-03-01T03:58:23;5.00;;;1.40;;
25449;SDS011;13371;52.080;5.624;2023-03-01T04:00:51;2.42;;;1.52;;
25449;SDS011;13371;52.080;5.624;2023-03-01T04:03:19;1.45;;;1.00;;
25449;SDS011;13371;52.080;5.624;2023-03-01T04:05:45;2.13;;;1.65;;
25449;SDS011;13371;52.080;5.624;2023-03-01T04:08:12;2.70;;;2.17;;
25449;SDS011;13371;52.080;5.624;2023-03-01T04:13:05;1.25;;;1.02;;
25449;SDS011;13371;52.080;5.624;2023-03-01T04:15:32;1.67;;;1.33;;
25449;SDS011;13371;52.080;5.624;2023-03-01T04:17:59;1.83;;;1.20;;
25449;SDS011;13371;52.080;5.624;2023-03-01T04:20:26;1.20;;;1.08;;
25449;SDS011;13371;52.080;5.624;2023-03-01T04:22:57;1.50;;;0.70;;
25449;SDS011;13371;52.080;5.624;2023-03-01T04:25:23;0.75;;;0.63;;
25449;SDS011;13371;52.080;5.624;2023-03-01T04:27:49;1.13;;;1.02;;
25449;SDS011;13371;52.080;5.624;2023-03-01T04:30:15;3.70;;;0.85;;
25449;SDS011;13371;52.080;5.624;2023-03-01T04:32:40;1.55;;;0.85;;
25449;SDS011;13371;52.080;5.624;2023-03-01T04:35:06;1.40;;;0.93;;
25449;SDS011;13371;52.080;5.624;2023-03-01T04:37:32;1.60;;;0.77;;
25449;SDS011;13371;52.080;5.624;2023-03-01T04:39:59;1.73;;;1.38;;
25449;SDS011;13371;52.080;5.624;2023-03-01T04:42:25;3.88;;;0.55;;
25449;SDS011;13371;52.080;5.624;2023-03-01T04:44:51;3.30;;;1.05;;
25449;SDS011;13371;52.080;5.624;2023-03-01T04:47:17;9.15;;;1.70;;
25449;SDS011;13371;52.080;5.624;2023-03-01T04:49:42;2.03;;;1.25;;
25449;SDS011;13371;52.080;5.624;2023-03-01T04:52:08;0.70;;;0.70;;
25449;SDS011;13371;52.080;5.624;2023-03-01T04:54:34;2.67;;;1.35;;
25449;SDS011;13371;52.080;5.624;2023-03-01T04:57:01;0.85;;;0.85;;
25449;SDS011;13371;52.080;5.624;2023-03-01T04:59:27;1.35;;;1.25;;
25449;SDS011;13371;52.080;5.624;2023-03-01T05:01:54;3.05;;;1.27;;
25449;SDS011;13371;52.080;5.624;2023-03-01T05:04:21;0.95;;;0.90;;
25449;SDS011;13371;52.080;5.624;2023-03-01T05:06:50;0.95;;;0.95;;
25449;SDS011;13371;52.080;5.624;2023-03-01T05:09:16;0.60;;;0.55;;
25449;SDS011;13371;52.080;5.624;2023-03-01T05:11:41;1.52;;;0.82;;
25449;SDS011;13371;52.080;5.624;2023-03-01T05:14:07;1.00;;;0.77;;
25449;SDS011;13371;52.080;5.624;2023-03-01T05:16:34;1.60;;;1.48;;
25449;SDS011;13371;52.080;5.624;2023-03-01T05:19:01;3.10;;;1.70;;
25449;SDS011;13371;52.080;5.624;2023-03-01T05:21:36;1.10;;;1.00;;
25449;SDS011;13371;52.080;5.624;2023-03-01T05:24:22;1.13;;;0.88;;
25449;SDS011;13371;52.080;5.624;2023-03-01T05:26:48;0.77;;;0.77;;
25449;SDS011;13371;52.080;5.624;2023-03-01T05:29:14;0.57;;;0.50;;
25449;SDS011;13371;52.080;5.624;2023-03-01T05:31:39;0.98;;;0.88;;
25449;SDS011;13371;52.080;5.624;2023-03-01T05:34:05;4.97;;;0.73;;
25449;SDS011;13371;52.080;5.624;2023-03-01T05:36:31;2.72;;;1.77;;
25449;SDS011;13371;52.080;5.624;2023-03-01T05:38:56;0.45;;;0.45;;
25449;SDS011;13371;52.080;5.624;2023-03-01T05:41:22;2.33;;;1.10;;
25449;SDS011;13371;52.080;5.624;2023-03-01T05:43:47;2.70;;;1.27;;
25449;SDS011;13371;52.080;5.624;2023-03-01T05:46:13;4.13;;;2.08;;
25449;SDS011;13371;52.080;5.624;2023-03-01T05:48:40;0.55;;;0.55;;
25449;SDS011;13371;52.080;5.624;2023-03-01T05:51:05;2.83;;;1.15;;
25449;SDS011;13371;52.080;5.624;2023-03-01T05:53:31;1.67;;;1.33;;
25449;SDS011;13371;52.080;5.624;2023-03-01T05:55:57;1.60;;;1.30;;
25449;SDS011;13371;52.080;5.624;2023-03-01T05:58:23;0.70;;;0.60;;
25449;SDS011;13371;52.080;5.624;2023-03-01T06:00:49;4.22;;;1.42;;
25449;SDS011;13371;52.080;5.624;2023-03-01T06:03:15;3.58;;;0.88;;
25449;SDS011;13371;52.080;5.624;2023-03-01T06:05:42;0.55;;;0.55;;
25449;SDS011;13371;52.080;5.624;2023-03-01T06:08:09;1.48;;;0.82;;
25449;SDS011;13371;52.080;5.624;2023-03-01T06:10:36;5.13;;;1.42;;
25449;SDS011;13371;52.080;5.624;2023-03-01T06:13:02;1.65;;;1.05;;
25449;SDS011;13371;52.080;5.624;2023-03-01T06:15:30;4.07;;;1.42;;
25449;SDS011;13371;52.080;5.624;2023-03-01T06:17:56;2.80;;;1.60;;
25449;SDS011;13371;52.080;5.624;2023-03-01T06:20:23;1.45;;;1.05;;
25449;SDS011;13371;52.080;5.624;2023-03-01T06:22:51;1.63;;;1.05;;
25449;SDS011;13371;52.080;5.624;2023-03-01T06:25:18;3.90;;;1.33;;
25449;SDS011;13371;52.080;5.624;2023-03-01T06:27:45;3.60;;;1.67;;
25449;SDS011;13371;52.080;5.624;2023-03-01T06:30:12;2.03;;;1.20;;
25449;SDS011;13371;52.080;5.624;2023-03-01T06:32:39;3.67;;;0.82;;
25449;SDS011;13371;52.080;5.624;2023-03-01T06:35:09;2.17;;;1.48;;
25449;SDS011;13371;52.080;5.624;2023-03-01T06:37:36;1.45;;;0.90;;
25449;SDS011;13371;52.080;5.624;2023-03-01T06:40:03;2.55;;;1.65;;
25449;SDS011;13371;52.080;5.624;2023-03-01T06:42:33;2.13;;;1.45;;
25449;SDS011;13371;52.080;5.624;2023-03-01T06:44:59;1.35;;;1.02;;
25449;SDS011;13371;52.080;5.624;2023-03-01T06:47:25;1.08;;;0.95;;
25449;SDS011;13371;52.080;5.624;2023-03-01T06:49:50;0.90;;;0.82;;
25449;SDS011;13371;52.080;5.624;2023-03-01T06:52:16;1.17;;;1.08;;
25449;SDS011;13371;52.080;5.624;2023-03-01T06:54:41;1.60;;;1.25;;
25449;SDS011;13371;52.080;5.624;2023-03-01T06:57:07;2.75;;;0.85;;
25449;SDS011;13371;52.080;5.624;2023-03-01T06:59:32;1.80;;;1.08;;
25449;SDS011;13371;52.080;5.624;2023-03-01T07:01:58;1.05;;;0.93;;
25449;SDS011;13371;52.080;5.624;2023-03-01T07:04:24;2.05;;;1.02;;
25449;SDS011;13371;52.080;5.624;2023-03-01T07:06:49;1.70;;;1.58;;
25449;SDS011;13371;52.080;5.624;2023-03-01T07:09:20;0.85;;;0.85;;
25449;SDS011;13371;52.080;5.624;2023-03-01T07:11:47;1.20;;;1.10;;
25449;SDS011;13371;52.080;5.624;2023-03-01T07:14:13;4.25;;;1.35;;
25449;SDS011;13371;52.080;5.624;2023-03-01T07:16:38;1.65;;;1.55;;
25449;SDS011;13371;52.080;5.624;2023-03-01T07:19:04;2.22;;;1.60;;
25449;SDS011;13371;52.080;5.624;2023-03-01T07:21:30;2.70;;;0.80;;
25449;SDS011;13371;52.080;5.624;2023-03-01T07:23:56;2.13;;;1.83;;
25449;SDS011;13371;52.080;5.624;2023-03-01T07:26:22;2.55;;;1.98;;
25449;SDS011;13371;52.080;5.624;2023-03-01T07:28:47;5.13;;;2.10;;
25449;SDS011;13371;52.080;5.624;2023-03-01T07:31:13;2.97;;;1.63;;
25449;SDS011;13371;52.080;5.624;2023-03-01T07:33:39;1.52;;;1.20;;
25449;SDS011;13371;52.080;5.624;2023-03-01T07:36:05;1.33;;;1.23;;
25449;SDS011;13371;52.080;5.624;2023-03-01T07:38:31;2.47;;;1.80;;
25449;SDS011;13371;52.080;5.624;2023-03-01T07:40:58;3.47;;;1.60;;
25449;SDS011;13371;52.080;5.624;2023-03-01T07:43:25;12.88;;;1.95;;
25449;SDS011;13371;52.080;5.624;2023-03-01T07:45:51;3.42;;;1.92;;
25449;SDS011;13371;52.080;5.624;2023-03-01T07:48:17;2.30;;;1.75;;
25449;SDS011;13371;52.080;5.624;2023-03-01T07:50:42;8.15;;;4.38;;
25449;SDS011;13371;52.080;5.624;2023-03-01T07:53:08;10.68;;;5.05;;
25449;SDS011;13371;52.080;5.624;2023-03-01T07:55:34;11.90;;;5.57;;
25449;SDS011;13371;52.080;5.624;2023-03-01T07:58:00;11.00;;;5.45;;
25449;SDS011;13371;52.080;5.624;2023-03-01T08:00:26;9.65;;;4.50;;
25449;SDS011;13371;52.080;5.624;2023-03-01T08:02:51;6.30;;;3.58;;
25449;SDS011;13371;52.080;5.624;2023-03-01T08:05:17;9.15;;;2.78;;
25449;SDS011;13371;52.080;5.624;2023-03-01T08:07:43;5.00;;;2.97;;
25449;SDS011;13371;52.080;5.624;2023-03-01T08:10:08;5.95;;;2.92;;
25449;SDS011;13371;52.080;5.624;2023-03-01T08:12:34;6.18;;;3.13;;
25449;SDS011;13371;52.080;5.624;2023-03-01T08:15:00;7.07;;;3.30;;
25449;SDS011;13371;52.080;5.624;2023-03-01T08:17:25;8.07;;;3.78;;
25449;SDS011;13371;52.080;5.624;2023-03-01T08:19:51;5.13;;;3.13;;
25449;SDS011;13371;52.080;5.624;2023-03-01T08:22:17;6.07;;;3.17;;
25449;SDS011;13371;52.080;5.624;2023-03-01T08:24:42;4.22;;;2.50;;
25449;SDS011;13371;52.080;5.624;2023-03-01T08:27:08;7.25;;;3.38;;
25449;SDS011;13371;52.080;5.624;2023-03-01T08:29:34;7.18;;;3.38;;
25449;SDS011;13371;52.080;5.624;2023-03-01T08:31:59;10.07;;;4.43;;
25449;SDS011;13371;52.080;5.624;2023-03-01T08:34:25;5.47;;;2.90;;
25449;SDS011;13371;52.080;5.624;2023-03-01T08:36:51;6.30;;;3.42;;
25449;SDS011;13371;52.080;5.624;2023-03-01T08:39:17;4.35;;;2.47;;
25449;SDS011;13371;52.080;5.624;2023-03-01T08:41:44;4.63;;;2.72;;
25449;SDS011;13371;52.080;5.624;2023-03-01T08:44:11;4.35;;;2.50;;
25449;SDS011;13371;52.080;5.624;2023-03-01T08:46:39;8.20;;;3.80;;
25449;SDS011;13371;52.080;5.624;2023-03-01T08:49:11;5.05;;;2.60;;
25449;SDS011;13371;52.080;5.624;2023-03-01T08:51:39;3.67;;;2.38;;
25449;SDS011;13371;52.080;5.624;2023-03-01T08:54:06;7.88;;;4.13;;
25449;SDS011;13371;52.080;5.624;2023-03-01T08:56:35;7.18;;;4.22;;
25449;SDS011;13371;52.080;5.624;2023-03-01T08:59:00;6.32;;;2.42;;
25449;SDS011;13371;52.080;5.624;2023-03-01T09:01:26;6.43;;;3.00;;
25449;SDS011;13371;52.080;5.624;2023-03-01T09:03:51;3.55;;;2.55;;
25449;SDS011;13371;52.080;5.624;2023-03-01T09:06:17;4.68;;;2.20;;
25449;SDS011;13371;52.080;5.624;2023-03-01T09:08:46;4.53;;;2.80;;
25449;SDS011;13371;52.080;5.624;2023-03-01T09:11:14;5.18;;;2.20;;
25449;SDS011;13371;52.080;5.624;2023-03-01T09:13:42;4.35;;;2.10;;
25449;SDS011;13371;52.080;5.624;2023-03-01T09:16:08;5.50;;;2.60;;
25449;SDS011;13371;52.080;5.624;2023-03-01T09:18:35;4.88;;;2.47;;
25449;SDS011;13371;52.080;5.624;2023-03-01T09:21:04;7.72;;;3.13;;
25449;SDS011;13371;52.080;5.624;2023-03-01T09:23:36;3.78;;;2.30;;
25449;SDS011;13371;52.080;5.624;2023-03-01T09:26:06;3.67;;;1.92;;
25449;SDS011;13371;52.080;5.624;2023-03-01T09:28:34;3.97;;;1.45;;
25449;SDS011;13371;52.080;5.624;2023-03-01T09:31:00;2.42;;;1.70;;
25449;SDS011;13371;52.080;5.624;2023-03-01T09:33:27;6.45;;;2.47;;
25449;SDS011;13371;52.080;5.624;2023-03-01T09:36:00;4.70;;;1.77;;
25449;SDS011;13371;52.080;5.624;2023-03-01T09:38:32;2.88;;;1.88;;
25449;SDS011;13371;52.080;5.624;2023-03-01T09:40:58;5.85;;;2.63;;
25449;SDS011;13371;52.080;5.624;2023-03-01T09:43:33;3.50;;;1.70;;
25449;SDS011;13371;52.080;5.624;2023-03-01T09:46:09;3.35;;;1.80;;
25449;SDS011;13371;52.080;5.624;2023-03-01T09:48:39;4.53;;;1.95;;
25449;SDS011;13371;52.080;5.624;2023-03-01T09:51:15;3.33;;;1.70;;
25449;SDS011;13371;52.080;5.624;2023-03-01T09:53:48;3.85;;;2.10;;
25449;SDS011;13371;52.080;5.624;2023-03-01T09:58:53;3.63;;;1.60;;
25449;SDS011;13371;52.080;5.624;2023-03-01T10:06:38;5.40;;;1.92;;
25449;SDS011;13371;52.080;5.624;2023-03-01T10:09:13;4.88;;;2.28;;
25449;SDS011;13371;52.080;5.624;2023-03-01T10:11:46;4.55;;;1.88;;
25449;SDS011;13371;52.080;5.624;2023-03-01T10:17:22;3.28;;;1.65;;
25449;SDS011;13371;52.080;5.624;2023-03-01T10:19:52;5.85;;;1.83;;
25449;SDS011;13371;52.080;5.624;2023-03-01T10:22:18;2.67;;;1.17;;
25449;SDS011;13371;52.080;5.624;2023-03-01T10:24:53;3.97;;;2.05;;
25449;SDS011;13371;52.080;5.624;2023-03-01T10:27:29;4.65;;;2.10;;
25449;SDS011;13371;52.080;5.624;2023-03-01T10:30:15;2.90;;;1.48;;
25449;SDS011;13371;52.080;5.624;2023-03-01T10:32:45;3.67;;;1.63;;
25449;SDS011;13371;52.080;5.624;2023-03-01T10:35:18;5.53;;;1.77;;
25449;SDS011;13371;52.080;5.624;2023-03-01T10:40:35;1.73;;;0.90;;
25449;SDS011;13371;52.080;5.624;2023-03-01T10:43:02;2.78;;;1.23;;
25449;SDS011;13371;52.080;5.624;2023-03-01T10:45:31;2.67;;;1.48;;
25449;SDS011;13371;52.080;5.624;2023-03-01T10:53:24;3.60;;;1.20;;
25449;SDS011;13371;52.080;5.624;2023-03-01T10:55:58;2.80;;;1.45;;
25449;SDS011;13371;52.080;5.624;2023-03-01T10:58:29;2.72;;;1.50;;
25449;SDS011;13371;52.080;5.624;2023-03-01T11:01:00;3.20;;;1.65;;
25449;SDS011;13371;52.080;5.624;2023-03-01T11:06:20;2.53;;;1.10;;
25449;SDS011;13371;52.080;5.624;2023-03-01T11:08:47;4.20;;;1.70;;
25449;SDS011;13371;52.080;5.624;2023-03-01T11:11:17;10.07;;;3.30;;
25449;SDS011;13371;52.080;5.624;2023-03-01T11:14:07;6.35;;;2.13;;
25449;SDS011;13371;52.080;5.624;2023-03-01T11:16:38;2.10;;;1.10;;
25449;SDS011;13371;52.080;5.624;2023-03-01T11:21:34;2.20;;;1.48;;
25449;SDS011;13371;52.080;5.624;2023-03-01T11:24:03;2.42;;;1.50;;
25449;SDS011;13371;52.080;5.624;2023-03-01T11:26:31;5.70;;;2.00;;
25449;SDS011;13371;52.080;5.624;2023-03-01T11:29:02;2.60;;;1.58;;
25449;SDS011;13371;52.080;5.624;2023-03-01T11:31:31;2.75;;;1.25;;
25449;SDS011;13371;52.080;5.624;2023-03-01T11:33:59;2.30;;;1.35;;
25449;SDS011;13371;52.080;5.624;2023-03-01T11:36:50;4.07;;;1.75;;
25449;SDS011;13371;52.080;5.624;2023-03-01T11:42:06;2.25;;;1.40;;
25449;SDS011;13371;52.080;5.624;2023-03-01T11:44:40;3.83;;;1.83;;
25449;SDS011;13371;52.080;5.624;2023-03-01T11:52:54;2.47;;;1.30;;
25449;SDS011;13371;52.080;5.624;2023-03-01T11:58:29;3.45;;;1.73;;
25449;SDS011;13371;52.080;5.624;2023-03-01T12:04:03;2.78;;;1.58;;
25449;SDS011;13371;52.080;5.624;2023-03-01T12:06:59;2.22;;;1.42;;
25449;SDS011;13371;52.080;5.624;2023-03-01T12:09:31;2.92;;;1.75;;
25449;SDS011;13371;52.080;5.624;2023-03-01T12:12:31;5.95;;;2.05;;
25449;SDS011;13371;52.080;5.624;2023-03-01T12:15:30;1.42;;;1.10;;
25449;SDS011;13371;52.080;5.624;2023-03-01T12:18:23;4.05;;;1.45;;
25449;SDS011;13371;52.080;5.624;2023-03-01T12:24:34;2.33;;;1.20;;
25449;SDS011;13371;52.080;5.624;2023-03-01T12:27:19;3.67;;;1.35;;
25449;SDS011;13371;52.080;5.624;2023-03-01T12:41:11;3.40;;;1.60;;
25449;SDS011;13371;52.080;5.624;2023-03-01T12:44:31;2.88;;;1.67;;
25449;SDS011;13371;52.080;5.624;2023-03-01T12:49:43;8.70;;;1.42;;
25449;SDS011;13371;52.080;5.624;2023-03-01T12:55:02;3.03;;;1.48;;
25449;SDS011;13371;52.080;5.624;2023-03-01T12:57:46;2.75;;;1.35;;
25449;SDS011;13371;52.080;5.624;2023-03-01T13:03:19;3.35;;;1.38;;
25449;SDS011;13371;52.080;5.624;2023-03-01T13:06:12;2.53;;;0.98;;
25449;SDS011;13371;52.080;5.624;2023-03-01T13:08:54;3.97;;;1.58;;
25449;SDS011;13371;52.080;5.624;2023-03-01T13:11:41;3.42;;;1.80;;
25449;SDS011;13371;52.080;5.624;2023-03-01T13:16:46;4.53;;;1.77;;
25449;SDS011;13371;52.080;5.624;2023-03-01T13:19:21;3.72;;;1.67;;
25449;SDS011;13371;52.080;5.624;2023-03-01T13:21:49;2.80;;;1.30;;
25449;SDS011;13371;52.080;5.624;2023-03-01T13:24:38;2.72;;;1.27;;
25449;SDS011;13371;52.080;5.624;2023-03-01T13:29:32;1.73;;;0.77;;
25449;SDS011;13371;52.080;5.624;2023-03-01T13:35:03;5.10;;;1.55;;
25449;SDS011;13371;52.080;5.624;2023-03-01T13:37:51;3.10;;;1.33;;
25449;SDS011;13371;52.080;5.624;2023-03-01T13:42:46;2.20;;;1.45;;
25449;SDS011;13371;52.080;5.624;2023-03-01T13:45:36;2.35;;;1.27;;
25449;SDS011;13371;52.080;5.624;2023-03-01T13:48:09;3.13;;;1.88;;
25449;SDS011;13371;52.080;5.624;2023-03-01T13:51:05;2.45;;;1.40;;
25449;SDS011;13371;52.080;5.624;2023-03-01T13:53:34;3.20;;;1.77;;
25449;SDS011;13371;52.080;5.624;2023-03-01T13:56:17;3.67;;;1.50;;
25449;SDS011;13371;52.080;5.624;2023-03-01T14:01:21;2.80;;;1.48;;
25449;SDS011;13371;52.080;5.624;2023-03-01T14:03:53;2.15;;;1.27;;
25449;SDS011;13371;52.080;5.624;2023-03-01T14:06:21;10.75;;;1.65;;
25449;SDS011;13371;52.080;5.624;2023-03-01T14:08:49;3.10;;;1.48;;
25449;SDS011;13371;52.080;5.624;2023-03-01T14:14:27;2.22;;;1.30;;
25449;SDS011;13371;52.080;5.624;2023-03-01T14:19:42;2.83;;;1.58;;
25449;SDS011;13371;52.080;5.624;2023-03-01T14:22:23;6.10;;;1.83;;
25449;SDS011;13371;52.080;5.624;2023-03-01T14:25:39;2.95;;;1.58;;
25449;SDS011;13371;52.080;5.624;2023-03-01T14:27:44;2.15;;;1.30;;
25449;SDS011;13371;52.080;5.624;2023-03-01T14:32:57;2.85;;;1.23;;
25449;SDS011;13371;52.080;5.624;2023-03-01T14:35:27;3.58;;;1.25;;
25449;SDS011;13371;52.080;5.624;2023-03-01T14:37:58;5.93;;;1.55;;
25449;SDS011;13371;52.080;5.624;2023-03-01T14:40:34;3.22;;;1.33;;
25449;SDS011;13371;52.080;5.624;2023-03-01T14:43:01;3.38;;;1.30;;
25449;SDS011;13371;52.080;5.624;2023-03-01T14:45:34;3.65;;;1.67;;
25449;SDS011;13371;52.080;5.624;2023-03-01T14:48:01;7.43;;;1.60;;
25449;SDS011;13371;52.080;5.624;2023-03-01T14:50:31;4.90;;;1.38;;
25449;SDS011;13371;52.080;5.624;2023-03-01T14:52:59;3.35;;;1.00;;
25449;SDS011;13371;52.080;5.624;2023-03-01T14:55:34;2.95;;;1.25;;
25449;SDS011;13371;52.080;5.624;2023-03-01T14:58:03;2.53;;;1.40;;
25449;SDS011;13371;52.080;5.624;2023-03-01T15:00:30;4.68;;;1.63;;
25449;SDS011;13371;52.080;5.624;2023-03-01T15:02:58;2.85;;;1.35;;
25449;SDS011;13371;52.080;5.624;2023-03-01T15:05:46;2.67;;;1.58;;
25449;SDS011;13371;52.080;5.624;2023-03-01T15:08:17;1.90;;;1.42;;
25449;SDS011;13371;52.080;5.624;2023-03-01T15:13:33;3.08;;;1.38;;
25449;SDS011;13371;52.080;5.624;2023-03-01T15:16:10;2.85;;;1.50;;
25449;SDS011;13371;52.080;5.624;2023-03-01T15:21:24;2.92;;;1.38;;
25449;SDS011;13371;52.080;5.624;2023-03-01T15:23:55;3.30;;;1.50;;
25449;SDS011;13371;52.080;5.624;2023-03-01T15:26:25;3.35;;;1.42;;
25449;SDS011;13371;52.080;5.624;2023-03-01T15:28:56;2.65;;;1.05;;
25449;SDS011;13371;52.080;5.624;2023-03-01T15:31:36;2.20;;;1.10;;
25449;SDS011;13371;52.080;5.624;2023-03-01T15:36:56;3.65;;;1.77;;
25449;SDS011;13371;52.080;5.624;2023-03-01T15:42:52;7.70;;;1.48;;
25449;SDS011;13371;52.080;5.624;2023-03-01T15:48:04;3.67;;;1.40;;
25449;SDS011;13371;52.080;5.624;2023-03-01T15:50:40;2.88;;;1.25;;
25449;SDS011;13371;52.080;5.624;2023-03-01T15:53:11;1.55;;;1.08;;
25449;SDS011;13371;52.080;5.624;2023-03-01T15:55:41;3.88;;;1.42;;
25449;SDS011;13371;52.080;5.624;2023-03-01T15:58:14;4.40;;;1.33;;
25449;SDS011;13371;52.080;5.624;2023-03-01T16:00:48;4.10;;;1.23;;
25449;SDS011;13371;52.080;5.624;2023-03-01T16:03:16;2.85;;;1.65;;
25449;SDS011;13371;52.080;5.624;2023-03-01T16:05:52;3.25;;;1.58;;
25449;SDS011;13371;52.080;5.624;2023-03-01T16:08:18;3.63;;;1.52;;
25449;SDS011;13371;52.080;5.624;2023-03-01T16:10:44;3.95;;;1.77;;
25449;SDS011;13371;52.080;5.624;2023-03-01T16:13:13;3.33;;;1.85;;
25449;SDS011;13371;52.080;5.624;2023-03-01T16:15:39;2.92;;;1.85;;
25449;SDS011;13371;52.080;5.624;2023-03-01T16:18:05;5.68;;;1.70;;
25449;SDS011;13371;52.080;5.624;2023-03-01T16:20:32;3.70;;;1.50;;
25449;SDS011;13371;52.080;5.624;2023-03-01T16:22:58;5.63;;;1.95;;
25449;SDS011;13371;52.080;5.624;2023-03-01T16:25:30;2.78;;;1.55;;
25449;SDS011;13371;52.080;5.624;2023-03-01T16:27:57;1.90;;;1.33;;
25449;SDS011;13371;52.080;5.624;2023-03-01T16:30:25;5.90;;;1.90;;
25449;SDS011;13371;52.080;5.624;2023-03-01T16:32:50;4.60;;;2.03;;
25449;SDS011;13371;52.080;5.624;2023-03-01T16:35:17;4.22;;;1.75;;
25449;SDS011;13371;52.080;5.624;2023-03-01T16:37:44;2.63;;;1.20;;
25449;SDS011;13371;52.080;5.624;2023-03-01T16:40:23;3.85;;;1.75;;
25449;SDS011;13371;52.080;5.624;2023-03-01T16:42:51;3.58;;;1.70;;
25449;SDS011;13371;52.080;5.624;2023-03-01T16:45:18;3.90;;;1.50;;